Time;durP1;ratioP1;P1;durP2;ratioP2;P2;SDS_P1;SDS_P2;PMS_P1;PMS_P2;Temp;Humidity;BMP_temperature;BMP_pressure;BME280_temperature;BME280_humidity;BME280_pressure;Samples;Min_cycle;Max_cycle;Signal;HPM_P1;HPM_P2
2022/01/02 00:01:09;;;;;;;1.53;0.70;;;;;;;-145.69;100.00;72713.94;5052762;28;20203;-76
2022/01/02 00:03:39;;;;;;;1.27;0.70;;;;;;;-145.69;100.00;72719.91;5052759;28;20206;-76
2022/01/02 00:06:08;;;;;;;1.20;0.93;;;;;;;-145.69;100.00;72701.97;5052847;28;20205;-76
2022/01/02 00:08:41;;;;;;;0.57;0.53;;;;;;;-145.69;100.00;72707.97;5052524;28;20658;-76
2022/01/02 00:11:11;;;;;;;0.97;0.67;;;;;;;-145.69;100.00;72717.91;5032850;28;20192;-76
2022/01/02 00:13:46;;;;;;;1.30;0.77;;;;;;;-145.69;100.00;72709.94;5032670;28;20707;-76
2022/01/02 00:16:15;;;;;;;1.23;0.73;;;;;;;-145.69;100.00;72705.97;5032260;28;20655;-76
2022/01/02 00:18:50;;;;;;;1.90;0.77;;;;;;;-145.69;100.00;72707.97;5032780;28;20208;-76
2022/01/02 00:21:21;;;;;;;0.77;0.67;;;;;;;-145.69;100.00;72721.88;5032650;28;20294;-76
2022/01/02 00:23:59;;;;;;;0.60;0.60;;;;;;;-145.69;100.00;72700.00;5032754;28;20211;-76
2022/01/02 00:26:35;;;;;;;0.83;0.60;;;;;;;-145.69;100.00;72696.00;5032508;28;20204;-76
2022/01/02 00:29:04;;;;;;;0.70;0.60;;;;;;;-145.69;100.00;72694.03;5034493;28;20295;-76
2022/01/02 00:31:32;;;;;;;0.93;0.80;;;;;;;-145.69;100.00;72692.03;5040283;28;20253;-76
2022/01/02 00:33:59;;;;;;;0.57;0.57;;;;;;;-145.69;100.00;72662.19;5056301;28;20223;-76
2022/01/02 00:36:27;;;;;;;0.50;0.50;;;;;;;-145.69;100.00;72670.13;5056230;28;20199;-76
2022/01/02 00:38:56;;;;;;;0.70;0.57;;;;;;;-145.69;100.00;72705.97;5056136;28;20667;-76
2022/01/02 00:41:25;;;;;;;0.50;0.50;;;;;;;-145.69;100.00;72717.91;5055813;28;20200;-76
2022/01/02 00:43:58;;;;;;;0.73;0.50;;;;;;;-145.69;100.00;72715.91;5055242;28;20784;-76
2022/01/02 00:46:32;;;;;;;0.73;0.60;;;;;;;-145.69;100.00;72735.81;5055565;28;20283;-76
2022/01/02 00:49:04;;;;;;;1.07;0.50;;;;;;;-145.69;100.00;72771.66;5056096;28;20661;-76
2022/01/02 00:51:43;;;;;;;0.50;0.50;;;;;;;-145.69;100.00;72761.69;5055507;28;20751;-76
2022/01/02 00:54:15;;;;;;;2.10;0.60;;;;;;;-145.69;100.00;72751.75;5056047;28;20317;-77
2022/01/02 00:56:44;;;;;;;0.60;0.60;;;;;;;-145.69;100.00;72737.81;5056077;28;20207;-76
2022/01/02 00:59:23;;;;;;;1.33;0.70;;;;;;;-145.69;100.00;72739.81;5056023;28;20562;-76
2022/01/02 01:01:57;;;;;;;1.23;0.90;;;;;;;-145.69;100.00;72747.78;5055797;28;20199;-76
2022/01/02 01:04:26;;;;;;;5.00;0.50;;;;;;;-145.69;100.00;72727.88;5055764;28;20653;-76
2022/01/02 01:06:57;;;;;;;2.27;0.70;;;;;;;-145.69;100.00;72713.94;5055807;28;20203;-76
2022/01/02 01:09:27;;;;;;;1.63;0.73;;;;;;;-145.69;100.00;72731.84;5055765;28;20203;-76
2022/01/02 01:11:54;;;;;;;2.60;0.73;;;;;;;-145.69;100.00;72715.91;5055579;28;20209;-76
2022/01/02 01:14:21;;;;;;;1.47;0.70;;;;;;;-145.69;100.00;72735.81;5055432;28;20322;-76
2022/01/02 01:16:47;;;;;;;0.60;0.60;;;;;;;-145.69;100.00;72795.53;5055205;28;20199;-76
2022/01/02 01:19:14;;;;;;;0.70;0.50;;;;;;;-145.69;100.00;72805.50;5055426;28;20199;-76
2022/01/02 01:21:40;;;;;;;1.10;0.60;;;;;;;-145.69;100.00;72781.59;5055368;28;20234;-76
2022/01/02 01:24:11;;;;;;;1.00;0.87;;;;;;;-145.69;100.00;72751.75;5055403;28;20562;-77
2022/01/02 01:26:40;;;;;;;1.37;0.67;;;;;;;-145.69;100.00;72723.88;5055395;28;20227;-76
2022/01/02 01:29:06;;;;;;;0.53;0.53;;;;;;;-145.69;100.00;72715.91;5055168;28;20203;-76
2022/01/02 01:31:33;;;;;;;1.07;0.60;;;;;;;-145.69;100.00;72713.94;5055391;28;20243;-76
2022/01/02 01:33:59;;;;;;;0.70;0.70;;;;;;;-145.69;100.00;72749.75;5055048;28;20231;-76
2022/01/02 01:36:26;;;;;;;0.93;0.80;;;;;;;-145.69;100.00;72701.97;5055159;28;20286;-76
2022/01/02 01:38:52;;;;;;;1.00;0.70;;;;;;;-145.69;100.00;72696.00;5054946;28;20208;-76
2022/01/02 01:41:28;;;;;;;0.87;0.67;;;;;;;-145.69;100.00;72676.09;5054945;28;20207;-76
2022/01/02 01:44:07;;;;;;;0.53;0.53;;;;;;;-145.69;100.00;72723.88;5055227;28;20203;-76
2022/01/02 01:46:33;;;;;;;0.87;0.63;;;;;;;-145.69;100.00;72723.88;5054658;28;20203;-76
2022/01/02 01:49:00;;;;;;;3.30;0.70;;;;;;;-145.69;100.00;72682.09;5054926;28;20207;-76
2022/01/02 01:51:27;;;;;;;0.57;0.57;;;;;;;-145.69;100.00;72715.91;5054754;28;20234;-76
2022/01/02 01:53:58;;;;;;;0.73;0.63;;;;;;;-145.69;100.00;72743.78;5054533;28;20235;-76
2022/01/02 01:56:26;;;;;;;0.67;0.67;;;;;;;-145.69;100.00;72743.78;5055054;28;20562;-76
2022/01/02 01:58:52;;;;;;;0.47;0.47;;;;;;;-145.69;100.00;72725.88;5054643;28;20606;-76
2022/01/02 02:01:19;;;;;;;1.33;0.70;;;;;;;-145.69;100.00;72739.81;5054880;28;20613;-76
2022/01/02 02:03:45;;;;;;;0.60;0.50;;;;;;;-145.69;100.00;72717.91;5054359;28;20265;-76
2022/01/02 02:06:12;;;;;;;1.53;0.60;;;;;;;-145.69;100.00;72711.94;5054623;28;20207;-76
2022/01/02 02:08:38;;;;;;;0.83;0.70;;;;;;;-145.69;100.00;72717.91;5054437;28;20257;-77
2022/01/02 02:11:05;;;;;;;0.70;0.70;;;;;;;-145.69;100.00;72709.94;5054599;28;20207;-76
2022/01/02 02:13:33;;;;;;;0.80;0.50;;;;;;;-145.69;100.00;72715.91;5054326;28;20227;-76
2022/01/02 02:16:02;;;;;;;1.73;0.77;;;;;;;-145.69;100.00;72719.91;5054130;28;20681;-76
2022/01/02 02:18:35;;;;;;;0.70;0.70;;;;;;;-145.69;100.00;72713.94;5054446;28;20249;-76
2022/01/02 02:21:03;;;;;;;0.60;0.60;;;;;;;-145.69;100.00;72713.94;5054340;28;20203;-76
2022/01/02 02:23:30;;;;;;;0.97;0.77;;;;;;;-145.69;100.00;72723.88;5054312;28;20199;-76
2022/01/02 02:25:56;;;;;;;0.93;0.70;;;;;;;-145.69;100.00;72731.84;5054546;28;20560;-76
2022/01/02 02:28:27;;;;;;;0.80;0.80;;;;;;;-145.69;100.00;72723.88;5054244;28;20203;-76
2022/01/02 02:30:54;;;;;;;1.03;0.80;;;;;;;-145.69;100.00;72715.91;5054160;28;20211;-76
2022/01/02 02:33:23;;;;;;;2.60;0.70;;;;;;;-145.69;100.00;72715.91;5053973;28;20199;-76
2022/01/02 02:35:51;;;;;;;0.90;0.77;;;;;;;-145.69;100.00;72733.84;5053853;28;20265;-76
2022/01/02 02:38:22;;;;;;;2.10;0.97;;;;;;;-145.69;100.00;72719.91;5053872;28;20294;-76
2022/01/02 02:40:49;;;;;;;2.53;0.60;;;;;;;-145.69;100.00;72723.88;5054093;28;20602;-76
2022/01/02 02:43:26;;;;;;;0.87;0.70;;;;;;;-145.69;100.00;72709.94;5054038;28;20199;-76
2022/01/02 02:51:28;;;;;;;1.23;0.80;;;;;;;-145.69;100.00;72711.94;5053025;28;20598;-76
2022/01/02 02:53:56;;;;;;;0.97;0.80;;;;;;;-145.69;100.00;72700.00;5053619;28;20230;-76
2022/01/02 02:56:25;;;;;;;1.10;0.70;;;;;;;-145.69;100.00;72711.94;5041016;28;20647;-76
2022/01/02 02:58:55;;;;;;;0.60;0.60;;;;;;;-145.69;100.00;72725.88;5047617;28;20207;-76
2022/01/02 03:01:23;;;;;;;0.70;0.70;;;;;;;-145.69;100.00;72705.97;5053775;28;20217;-76
2022/01/02 03:03:50;;;;;;;0.93;0.70;;;;;;;-145.69;100.00;72698.00;5053089;28;20203;-76
2022/01/02 03:06:17;;;;;;;0.67;0.60;;;;;;;-145.69;100.00;72719.91;5053241;28;20200;-76
2022/01/02 03:08:46;;;;;;;0.80;0.80;;;;;;;-145.69;100.00;72717.91;5053185;28;20230;-76
2022/01/02 03:11:16;;;;;;;1.23;0.60;;;;;;;-145.69;100.00;72713.94;5053137;28;20199;-76
2022/01/02 03:13:45;;;;;;;1.20;0.80;;;;;;;-145.69;100.00;72711.94;5053460;28;20234;-76
2022/01/02 03:16:11;;;;;;;0.87;0.60;;;;;;;-145.69;100.00;72711.94;5053473;28;20203;-76
2022/01/02 03:18:39;;;;;;;1.47;0.60;;;;;;;-145.69;100.00;72672.13;5053014;28;20206;-76
2022/01/02 03:21:06;;;;;;;0.60;0.60;;;;;;;-145.69;100.00;72664.16;5053069;28;20677;-76
2022/01/02 03:23:36;;;;;;;0.80;0.70;;;;;;;-145.69;100.00;72682.09;5053131;28;20238;-76
2022/01/02 03:26:03;;;;;;;0.60;0.60;;;;;;;-145.69;100.00;72688.06;5052994;28;20307;-76
2022/01/02 03:28:30;;;;;;;0.67;0.60;;;;;;;-145.69;100.00;72700.00;5052859;28;20203;-76
2022/01/02 03:30:57;;;;;;;0.70;0.60;;;;;;;-145.69;100.00;72668.16;5053245;28;20199;-76
2022/01/02 03:33:23;;;;;;;0.70;0.70;;;;;;;-145.69;100.00;72658.19;5052654;28;20199;-77
2022/01/02 03:35:50;;;;;;;1.23;0.60;;;;;;;-145.69;100.00;72676.09;5052634;28;20196;-76
2022/01/02 03:38:17;;;;;;;0.67;0.67;;;;;;;-145.69;100.00;72680.09;5053096;28;20207;-76
2022/01/02 03:40:46;;;;;;;3.50;0.77;;;;;;;-145.69;100.00;72707.97;5053064;28;20199;-76
2022/01/02 03:43:13;;;;;;;0.70;0.53;;;;;;;-145.69;100.00;72694.03;5052647;28;20210;-76
2022/01/02 03:45:41;;;;;;;3.67;0.57;;;;;;;-145.69;100.00;72676.09;5052431;28;20203;-76
2022/01/02 03:48:08;;;;;;;0.77;0.77;;;;;;;-145.69;100.00;72674.13;5052799;28;20228;-76
2022/01/02 03:50:35;;;;;;;0.90;0.60;;;;;;;-145.69;100.00;72670.13;5052387;28;20555;-76
2022/01/02 03:53:06;;;;;;;1.10;0.70;;;;;;;-145.69;100.00;72672.13;5052645;28;20650;-76
2022/01/02 03:55:32;;;;;;;1.00;0.80;;;;;;;-145.69;100.00;72638.28;5052890;28;20238;-76
2022/01/02 03:58:02;;;;;;;0.50;0.50;;;;;;;-145.69;100.00;72640.28;5052963;28;20210;-76
2022/01/02 04:00:28;;;;;;;1.27;0.70;;;;;;;-145.69;100.00;72632.31;5052849;28;20231;-76
2022/01/02 04:02:56;;;;;;;1.70;0.63;;;;;;;-145.69;100.00;72640.28;5052502;28;20566;-76
2022/01/02 04:05:23;;;;;;;0.73;0.73;;;;;;;-145.69;100.00;72618.38;5056518;28;20196;-76
2022/01/02 04:07:51;;;;;;;2.00;0.80;;;;;;;-145.69;100.00;72638.28;5057056;28;20210;-76
2022/01/02 04:10:19;;;;;;;0.60;0.60;;;;;;;-145.69;100.00;72628.34;5056401;28;20203;-76
2022/01/02 04:12:48;;;;;;;1.77;0.80;;;;;;;-145.69;100.00;72634.31;5056757;28;20531;-76
2022/01/02 04:15:15;;;;;;;1.17;0.80;;;;;;;-145.69;99.32;72632.31;5056589;28;20231;-76
2022/01/02 04:17:44;;;;;;;0.60;0.60;;;;;;;-145.69;100.00;72656.22;5056311;28;20257;-76
2022/01/02 04:20:14;;;;;;;1.77;0.90;;;;;;;-145.69;97.51;72604.44;5056773;28;20210;-76
2022/01/02 04:22:41;;;;;;;0.83;0.80;;;;;;;-145.69;96.66;72612.41;5056619;28;20895;-76
2022/01/02 04:25:10;;;;;;;2.30;0.90;;;;;;;-145.69;94.20;72568.63;5056486;28;20203;-76
2022/01/02 04:27:37;;;;;;;0.70;0.70;;;;;;;-145.69;93.96;72570.63;5056134;28;20207;-76
2022/01/02 04:30:06;;;;;;;0.87;0.80;;;;;;;-145.69;93.46;72576.59;5056446;28;20203;-76
2022/01/02 04:32:32;;;;;;;0.67;0.60;;;;;;;-145.69;90.98;72540.75;5056337;28;20553;-76
2022/01/02 04:34:59;;;;;;;1.47;0.70;;;;;;;-145.69;95.80;72596.50;5056465;28;20277;-76
2022/01/02 04:37:27;;;;;;;0.90;0.90;;;;;;;-145.69;93.35;72590.53;5049378;28;20212;-76
2022/01/02 04:39:53;;;;;;;2.57;0.90;;;;;;;-145.69;92.07;72590.53;5035955;28;20204;-76
2022/01/02 04:42:20;;;;;;;0.90;0.73;;;;;;;-145.69;91.30;72572.59;5036211;28;20200;-76
2022/01/02 04:44:46;;;;;;;1.30;0.60;;;;;;;-145.69;89.87;72572.59;5035935;28;20200;-76
2022/01/02 04:47:13;;;;;;;0.90;0.70;;;;;;;-145.69;92.07;72588.53;5036076;28;20673;-75
2022/01/02 04:49:39;;;;;;;1.17;0.80;;;;;;;-145.69;89.67;72586.53;5036484;28;20614;-76
2022/01/02 04:52:06;;;;;;;0.70;0.60;;;;;;;-145.69;90.14;72588.53;5036000;28;20228;-76
2022/01/02 04:54:34;;;;;;;0.93;0.70;;;;;;;-145.69;90.35;72592.50;5036108;28;20228;-76
2022/01/02 04:57:00;;;;;;;0.97;0.80;;;;;;;-145.69;88.76;72594.50;5035630;28;20207;-76
2022/01/02 04:59:26;;;;;;;1.10;0.70;;;;;;;-145.69;88.80;72600.47;5035800;28;20208;-76
2022/01/02 05:01:53;;;;;;;1.13;0.97;;;;;;;-145.69;87.82;72580.56;5043196;28;20619;-76
2022/01/02 05:04:19;;;;;;;1.37;0.80;;;;;;;-145.69;89.19;72584.56;5055651;28;20207;-76
2022/01/02 05:06:46;;;;;;;0.90;0.83;;;;;;;-145.69;87.97;72592.50;5055974;28;20199;-76
2022/01/02 05:09:15;;;;;;;0.90;0.70;;;;;;;-145.69;87.05;72566.63;5055752;28;20257;-76
2022/01/02 05:11:43;;;;;;;0.90;0.87;;;;;;;-145.69;93.45;72618.38;5055363;28;20737;-76
2022/01/02 05:14:12;;;;;;;1.47;0.97;;;;;;;-145.69;90.52;72610.44;5054806;28;20654;-76
2022/01/02 05:16:38;;;;;;;0.63;0.63;;;;;;;-145.69;91.05;72612.41;5055511;28;20199;-76
2022/01/02 05:19:05;;;;;;;1.33;1.00;;;;;;;-145.69;89.03;72588.53;5055650;28;20200;-76
2022/01/02 05:21:31;;;;;;;1.10;0.80;;;;;;;-145.69;86.77;72588.53;5055484;28;20204;-76
2022/01/02 05:23:58;;;;;;;1.10;0.80;;;;;;;-145.69;84.17;72562.66;5055312;28;20213;-76
2022/01/02 05:26:24;;;;;;;0.60;0.60;;;;;;;-145.69;87.14;72576.59;5055331;28;20650;-76
2022/01/02 05:28:52;;;;;;;1.10;0.77;;;;;;;-145.69;87.15;72568.63;5055259;28;20206;-76
2022/01/02 05:31:18;;;;;;;0.70;0.70;;;;;;;-145.69;85.25;72548.72;5055028;28;20206;-76
2022/01/02 05:33:45;;;;;;;0.97;0.80;;;;;;;-145.69;83.04;72536.78;5054795;28;20207;-76
2022/01/02 05:36:11;;;;;;;1.07;0.80;;;;;;;-145.69;83.24;72520.84;5055274;28;20227;-76
2022/01/02 05:38:38;;;;;;;0.60;0.60;;;;;;;-145.69;82.65;72500.94;5055228;28;20207;-76
2022/01/02 05:41:04;;;;;;;0.80;0.60;;;;;;;-145.69;83.87;72508.91;5054742;28;20212;-76
2022/01/02 05:43:33;;;;;;;1.10;0.70;;;;;;;-145.69;85.48;72508.91;5054767;28;20199;-76
2022/01/02 05:46:05;;;;;;;0.67;0.63;;;;;;;-145.69;86.44;72532.78;5054689;28;20686;-76
2022/01/02 05:48:32;;;;;;;1.17;0.80;;;;;;;-145.69;89.50;72534.78;5054595;28;20686;-76
2022/01/02 05:51:00;;;;;;;1.13;0.80;;;;;;;-145.69;86.78;72546.72;5054667;28;20207;-76
2022/01/02 05:53:31;;;;;;;0.93;0.90;;;;;;;-145.69;83.14;72502.94;5054773;28;20203;-76
2022/01/02 05:56:01;;;;;;;2.20;0.80;;;;;;;-145.69;82.56;72496.97;5054969;28;20227;-76
2022/01/02 05:58:27;;;;;;;0.97;0.70;;;;;;;-145.69;81.19;72489.00;5054718;28;20203;-76
2022/01/02 06:00:54;;;;;;;1.40;0.50;;;;;;;-145.69;80.21;72469.09;5054556;28;20257;-76
2022/01/02 06:03:21;;;;;;;0.70;0.60;;;;;;;-145.69;79.74;72473.09;5054339;28;20204;-76
2022/01/02 06:05:48;;;;;;;0.80;0.57;;;;;;;-145.69;80.47;72473.09;5054381;28;20211;-76
2022/01/02 06:08:17;;;;;;;3.03;0.90;;;;;;;-145.69;79.17;72475.06;5054269;28;20207;-77
2022/01/02 06:10:44;;;;;;;0.60;0.60;;;;;;;-145.69;76.68;72457.16;5054161;28;20211;-77
2022/01/02 06:13:10;;;;;;;0.70;0.60;;;;;;;-145.69;78.92;72453.19;5054398;28;20544;-76
2022/01/02 06:15:37;;;;;;;0.90;0.70;;;;;;;-145.69;78.91;72461.13;5054120;28;20285;-77
2022/01/02 06:18:03;;;;;;;0.90;0.90;;;;;;;-145.69;79.61;72469.09;5054370;28;20203;-76
2022/01/02 06:20:31;;;;;;;0.93;0.83;;;;;;;-145.69;79.96;72481.03;5054518;28;20333;-76
2022/01/02 06:22:58;;;;;;;0.70;0.63;;;;;;;-145.69;80.88;72477.06;5054405;28;20219;-76
2022/01/02 06:25:24;;;;;;;2.53;0.80;;;;;;;-145.69;86.05;72510.91;5053737;28;20204;-76
2022/01/02 06:27:53;;;;;;;2.10;0.70;;;;;;;-145.69;86.81;72526.81;5053907;28;20199;-76
2022/01/02 06:30:19;;;;;;;0.87;0.70;;;;;;;-145.69;85.43;72491.00;5054253;28;20561;-76
2022/01/02 06:32:48;;;;;;;0.97;0.67;;;;;;;-145.69;86.02;72469.09;5053631;28;20206;-76
2022/01/02 06:35:15;;;;;;;4.23;0.70;;;;;;;-145.69;86.34;72477.06;5053886;28;20231;-76
2022/01/02 06:37:44;;;;;;;0.70;0.70;;;;;;;-145.69;83.31;72449.19;5054353;28;20206;-76
2022/01/02 06:40:11;;;;;;;0.93;0.67;;;;;;;-145.69;81.96;72461.13;5052005;28;20199;-76
2022/01/02 06:42:37;;;;;;;0.50;0.50;;;;;;;-145.69;78.67;72431.28;5034077;28;20200;-76
2022/01/02 06:45:05;;;;;;;0.97;0.60;;;;;;;-145.69;79.11;72413.38;5033881;28;20200;-76
2022/01/02 06:47:31;;;;;;;0.60;0.60;;;;;;;-145.69;76.14;72389.50;5033989;28;20196;-76
2022/01/02 06:49:58;;;;;;;0.97;0.67;;;;;;;-145.69;80.20;72391.47;5033868;28;20199;-76
2022/01/02 06:52:24;;;;;;;0.83;0.70;;;;;;;-145.69;82.23;72435.28;5033668;28;20594;-76
2022/01/02 06:54:53;;;;;;;0.93;0.50;;;;;;;-145.69;77.86;72399.44;5033561;28;20317;-76
2022/01/02 06:57:21;;;;;;;1.17;0.80;;;;;;;-145.69;78.93;72361.63;5033589;28;20196;-76
2022/01/02 06:59:51;;;;;;;1.30;0.60;;;;;;;-145.69;77.08;72341.72;5033663;28;20299;-76
2022/01/02 07:02:22;;;;;;;0.60;0.60;;;;;;;-145.69;75.96;72337.75;5045241;28;20657;-76
2022/01/02 07:04:48;;;;;;;2.10;0.60;;;;;;;-145.69;77.55;72329.78;5053564;28;20203;-76
2022/01/02 07:07:15;;;;;;;0.63;0.60;;;;;;;-145.69;76.33;72323.81;5053425;28;20203;-76
2022/01/02 07:09:41;;;;;;;3.80;0.70;;;;;;;-145.69;77.74;72305.91;5053237;28;20203;-76
2022/01/02 07:12:15;;;;;;;2.23;0.60;;;;;;;-145.69;77.13;72286.00;5053402;28;20199;-76
2022/01/02 07:14:43;;;;;;;0.93;0.40;;;;;;;-145.69;77.79;72272.06;5053294;28;20195;-76
2022/01/02 07:17:10;;;;;;;2.67;0.63;;;;;;;-145.69;75.23;72264.09;5053278;28;20673;-76
2022/01/02 07:19:38;;;;;;;0.70;0.60;;;;;;;-145.69;77.01;72301.91;5053346;28;20199;-76
2022/01/02 07:22:05;;;;;;;0.70;0.60;;;;;;;-145.69;74.04;72301.91;5053420;28;20210;-76
2022/01/02 07:24:37;;;;;;;0.50;0.50;;;;;;;-145.69;70.62;72258.13;5053276;28;20203;-76
2022/01/02 07:27:03;;;;;;;0.97;0.50;;;;;;;-145.69;73.75;72198.41;5052826;28;20206;-76
2022/01/02 07:29:31;;;;;;;0.93;0.60;;;;;;;-145.69;74.90;72218.31;5053177;28;20203;-76
2022/01/02 07:31:58;;;;;;;1.43;0.80;;;;;;;-145.69;71.71;72206.38;5052785;28;20681;-76
2022/01/02 07:34:24;;;;;;;1.63;0.90;;;;;;;-145.69;82.63;72311.88;5053008;28;20199;-76
2022/01/02 07:36:51;;;;;;;3.47;0.80;;;;;;;-145.69;79.78;72333.75;5051870;28;20459;-76
2022/01/02 07:39:17;;;;;;;0.50;0.50;;;;;;;-145.69;84.63;72379.53;5052891;28;20214;-76
2022/01/02 07:41:44;;;;;;;0.60;0.60;;;;;;;-145.69;86.14;72391.47;5052849;28;20203;-76
2022/01/02 07:44:10;;;;;;;0.70;0.67;;;;;;;-145.69;89.08;72377.53;5052812;28;20243;-76
2022/01/02 07:46:38;;;;;;;7.47;0.63;;;;;;;-145.69;80.66;72329.78;5052727;28;20317;-76
2022/01/02 07:49:05;;;;;;;0.67;0.67;;;;;;;-145.69;78.72;72254.16;5052918;28;20210;-76
2022/01/02 07:51:31;;;;;;;2.03;0.60;;;;;;;-145.69;76.19;72244.19;5052680;28;20629;-76
2022/01/02 07:53:58;;;;;;;3.57;0.50;;;;;;;-145.69;79.04;72230.25;5052955;28;20286;-76
2022/01/02 07:56:25;;;;;;;2.27;0.80;;;;;;;-145.69;79.71;72242.22;5052619;28;20238;-76
2022/01/02 07:58:51;;;;;;;2.17;0.60;;;;;;;-145.69;81.43;72238.22;5052826;28;20203;-76
2022/01/02 08:01:18;;;;;;;0.97;0.70;;;;;;;-145.69;86.53;72258.13;5052415;28;20203;-76
2022/01/02 08:03:45;;;;;;;0.80;0.60;;;;;;;-145.69;77.37;72242.22;5052697;28;20728;-76
2022/01/02 08:06:12;;;;;;;6.33;0.70;;;;;;;-145.69;77.40;72204.38;5052854;28;20202;-76
2022/01/02 08:08:39;;;;;;;2.00;0.60;;;;;;;-145.69;83.50;72252.16;5052747;28;20207;-76
2022/01/02 08:11:05;;;;;;;0.97;0.60;;;;;;;-145.69;76.41;72222.31;5052550;28;20199;-76
2022/01/02 08:13:36;;;;;;;3.57;0.77;;;;;;;-145.69;85.34;72286.00;5052598;28;20207;-76
2022/01/02 08:16:03;;;;;;;0.57;0.57;;;;;;;-145.69;80.05;72295.94;5052802;28;20223;-76
2022/01/02 08:18:30;;;;;;;1.53;0.77;;;;;;;-145.69;87.05;72297.94;5052720;28;20203;-76
2022/01/02 08:20:57;;;;;;;0.90;0.70;;;;;;;-145.69;83.80;72297.94;5052447;28;20207;-76
2022/01/02 08:23:24;;;;;;;3.07;0.60;;;;;;;-145.69;81.14;72309.88;5052583;28;20241;-76
2022/01/02 08:25:51;;;;;;;3.90;0.50;;;;;;;-145.69;76.08;72234.25;5052422;28;20215;-76
2022/01/02 08:28:17;;;;;;;4.00;0.70;;;;;;;-145.69;76.27;72238.22;5052839;28;20208;-76
2022/01/02 08:30:44;;;;;;;0.50;0.50;;;;;;;-145.69;70.10;72200.41;5051821;28;20547;-76
2022/01/02 08:33:11;;;;;;;3.13;0.70;;;;;;;-145.69;71.91;72186.47;5052517;28;20207;-76
2022/01/02 08:35:38;;;;;;;1.83;0.57;;;;;;;-145.69;72.31;72174.53;5054343;28;20227;-75
2022/01/02 08:38:05;;;;;;;2.00;0.50;;;;;;;-145.69;68.92;72126.78;5052450;28;20195;-76
2022/01/02 08:40:32;;;;;;;0.40;0.40;;;;;;;-145.69;71.30;72114.81;5051930;28;20203;-75
2022/01/02 08:42:59;;;;;;;0.40;0.40;;;;;;;-145.69;71.58;72100.91;5052619;28;20210;-75
2022/01/02 08:45:25;;;;;;;1.57;0.70;;;;;;;-145.69;69.07;72051.16;5053641;28;20299;-75
2022/01/02 08:47:51;;;;;;;3.50;0.70;;;;;;;-145.69;68.20;72021.28;5050429;28;20208;-75
2022/01/02 08:50:18;;;;;;;1.90;0.57;;;;;;;-145.69;68.00;72019.31;5034990;28;20239;-75
2022/01/02 08:52:45;;;;;;;2.60;0.97;;;;;;;-145.69;70.68;72025.28;5035848;28;20232;-75
2022/01/02 08:55:13;;;;;;;0.80;0.50;;;;;;;-145.69;70.73;72023.28;5035863;28;20207;-75
2022/01/02 08:57:39;;;;;;;0.80;0.50;;;;;;;-145.69;69.31;72035.22;5035802;28;20666;-75
2022/01/02 09:00:07;;;;;;;0.67;0.50;;;;;;;-145.69;66.69;72025.28;5038258;28;20196;-75
2022/01/02 09:02:33;;;;;;;0.60;0.60;;;;;;;-145.69;62.15;72009.34;5055942;28;20207;-75
2022/01/02 09:05:00;;;;;;;0.70;0.60;;;;;;;-145.69;58.78;71991.44;5055768;28;20199;-75
2022/01/02 09:07:26;;;;;;;0.90;0.70;;;;;;;-145.69;67.18;72003.38;5055580;28;20658;-75
2022/01/02 09:09:56;;;;;;;0.60;0.50;;;;;;;-145.69;66.89;72017.31;5055357;28;20200;-76
2022/01/02 09:12:23;;;;;;;0.77;0.50;;;;;;;-145.69;61.23;71983.47;5055431;28;20203;-75
2022/01/02 09:14:51;;;;;;;1.07;0.50;;;;;;;-145.69;57.45;71943.69;5055620;28;20569;-75
2022/01/02 09:17:18;;;;;;;0.80;0.40;;;;;;;-145.69;55.98;71907.84;5055498;28;20239;-75
2022/01/02 09:19:48;;;;;;;1.23;0.50;;;;;;;-145.69;52.82;71868.06;5055465;28;20253;-75
2022/01/02 09:22:15;;;;;;;0.80;0.50;;;;;;;-145.69;65.46;71880.00;5055676;28;20210;-75
2022/01/02 09:24:41;;;;;;;0.80;0.53;;;;;;;-145.69;62.92;71903.88;5055554;28;20200;-75
2022/01/02 09:27:08;;;;;;;0.90;0.50;;;;;;;-145.69;67.54;71901.88;5055520;28;20211;-76
2022/01/02 09:29:38;;;;;;;1.23;0.60;;;;;;;-145.69;58.89;71893.91;5055532;28;20199;-75
2022/01/02 09:32:07;;;;;;;1.55;0.80;;;;;;;-145.69;55.30;71844.16;5054788;28;20203;-75
2022/01/02 09:34:34;;;;;;;1.70;0.98;;;;;;;-145.69;55.85;71808.34;5055290;28;20199;-76
2022/01/02 09:37:01;;;;;;;1.38;0.73;;;;;;;-145.69;54.76;71770.53;5055119;28;20273;-76
2022/01/02 09:39:27;;;;;;;14.70;6.35;;;;;;;-145.69;62.59;71748.66;5055299;28;20242;-76
2022/01/02 09:41:56;;;;;;;21.23;10.07;;;;;;;-145.69;65.29;71756.59;5055110;28;20204;-76
2022/01/02 09:44:23;;;;;;;25.83;12.98;;;;;;;-145.69;63.76;71768.53;5055073;28;20650;-76
2022/01/02 09:46:52;;;;;;;28.05;14.35;;;;;;;-145.69;65.45;71772.53;5054919;28;20207;-76
2022/01/02 09:49:20;;;;;;;22.85;11.27;;;;;;;-145.69;68.21;71776.50;5054906;28;20215;-76
2022/01/02 09:51:46;;;;;;;17.33;8.43;;;;;;;-145.69;69.44;71796.41;5054613;28;20702;-75
2022/01/02 09:54:16;;;;;;;15.13;6.93;;;;;;;-145.69;74.14;71814.31;5055116;28;20200;-76
2022/01/02 09:56:43;;;;;;;5.03;2.53;;;;;;;-145.69;72.19;71846.16;5055016;28;20590;-75
2022/01/02 09:59:09;;;;;;;11.32;4.75;;;;;;;-145.69;67.03;71844.16;5054813;28;20739;-75
2022/01/02 10:01:39;;;;;;;8.73;4.57;;;;;;;-145.69;67.90;71832.22;5054280;28;20203;-76
2022/01/02 10:04:07;;;;;;;5.88;3.45;;;;;;;-145.69;57.21;71820.28;5055041;28;20667;-75
2022/01/02 10:06:47;;;;;;;15.23;6.68;;;;;;;-145.69;50.32;71756.59;5054696;28;20218;-75
2022/01/02 10:09:29;;;;;;;11.80;5.72;;;;;;;-145.69;49.80;71720.78;5054606;28;20301;-75
2022/01/02 10:12:25;;;;;;;15.23;6.45;;;;;;;-145.69;43.74;71653.13;5054292;28;20207;-75
2022/01/02 10:15:10;;;;;;;10.60;4.50;;;;;;;-145.69;44.80;71623.28;5054556;28;20199;-75
2022/01/02 10:17:51;;;;;;;13.68;5.35;;;;;;;-145.69;41.42;71609.34;5047703;28;20228;-75
2022/01/02 10:20:20;;;;;;;4.88;2.60;;;;;;;-145.69;43.96;71577.50;5034215;28;20204;-76
2022/01/02 10:23:04;;;;;;;7.63;3.17;;;;;;;-145.69;44.40;71573.53;5034280;28;20202;-75
2022/01/02 10:25:46;;;;;;;7.32;3.25;;;;;;;-145.69;40.51;71535.72;5034168;28;20646;-75
2022/01/02 10:28:28;;;;;;;14.15;6.13;;;;;;;-145.69;39.91;71511.84;5034286;28;20200;-75
2022/01/02 10:30:56;;;;;;;11.27;5.80;;;;;;;-145.69;39.91;71517.81;5041970;28;20198;-75
2022/01/02 10:33:23;;;;;;;4.38;1.95;;;;;;;-145.69;40.63;71533.72;5054073;28;20236;-75
2022/01/02 10:35:58;;;;;;;5.50;2.92;;;;;;;-145.69;41.63;71535.72;5053114;28;20199;-75
2022/01/02 10:38:25;;;;;;;6.10;3.42;;;;;;;-145.69;41.97;71557.59;5053956;28;20661;-75
2022/01/02 10:40:51;;;;;;;2.05;1.52;;;;;;;-145.69;39.24;71547.66;5053808;28;20207;-75
2022/01/02 10:43:29;;;;;;;1.75;1.10;;;;;;;-145.69;39.26;71557.59;5053788;28;20207;-75
2022/01/02 10:45:57;;;;;;;1.83;1.13;;;;;;;-145.69;39.42;71561.59;5036870;28;20204;-77
2022/01/02 10:48:32;;;;;;;2.17;0.90;;;;;;;-145.69;39.33;71541.69;5035108;28;20192;-76
2022/01/02 10:51:03;;;;;;;2.92;0.95;;;;;;;-145.69;39.39;71569.53;5053049;28;20202;-77
2022/01/02 10:53:30;;;;;;;1.25;0.82;;;;;;;-145.69;37.65;71579.50;5053741;28;20199;-76
2022/01/02 10:55:56;;;;;;;1.20;0.77;;;;;;;-145.69;37.19;71551.63;5053769;28;20206;-76
2022/01/02 10:58:25;;;;;;;0.85;0.75;;;;;;;-145.69;39.39;71577.50;5053631;28;20199;-75
2022/01/02 11:00:52;;;;;;;1.17;0.80;;;;;;;-145.69;39.22;71571.53;5052957;28;20207;-75
2022/01/02 11:03:24;;;;;;;1.40;0.90;;;;;;;-145.69;41.01;71579.50;5053303;28;20272;-75
2022/01/02 11:06:02;;;;;;;1.38;1.00;;;;;;;-145.69;38.78;71581.50;5053172;28;20213;-75
2022/01/02 11:08:33;;;;;;;1.70;0.70;;;;;;;-145.69;38.96;71561.59;5053653;28;20206;-75
2022/01/02 11:11:00;;;;;;;1.38;0.80;;;;;;;-145.69;39.02;71557.59;5053513;28;20200;-75
2022/01/02 11:13:27;;;;;;;1.45;1.13;;;;;;;-145.69;38.39;71541.69;5052998;28;20559;-76
2022/01/02 11:15:54;;;;;;;1.80;1.20;;;;;;;-145.69;39.71;71525.78;5053126;28;20650;-76
2022/01/02 11:18:21;;;;;;;2.40;0.98;;;;;;;-145.69;40.62;71539.69;5053331;28;20210;-76
2022/01/02 11:20:49;;;;;;;1.52;0.95;;;;;;;-145.69;38.66;71533.72;5053048;28;20226;-76
2022/01/02 11:23:23;;;;;;;2.30;1.40;;;;;;;-145.69;39.11;71549.66;5053170;28;20206;-75
2022/01/02 11:26:00;;;;;;;2.45;1.42;;;;;;;-145.69;38.08;71537.72;5053293;28;20218;-75